• Join FlightAware (Why Join?)
  • Login
  • US Flag 
11:17AM EDT


 

Airport Tracker/Info


-or-


 

Live Flight TrackerFlight Track Log ✈ DAL1020 ✈ 31-Aug-2013 ✈ KMSP - PANC

Flight Track Log - Related Links

Times and Time Zones

All times are in EDT time to prevent confusion due to time zone crossing. See the DAL1020 flight status page for this flight to view local times or setup timezone preferences in your user account.

Time Position Orientation Groundspeed Altitude Reporting Facility
EDT Latitude Longitude Course Direction KTS MPH feet Rate Location/Type
10:14AM 44.8667 -93.1667 297° West 177 204 2,200  Level Minneapolis TRACON
10:15AM 44.8658 -93.1108 91° East 200 230 3,100 1,560 Climbing Minneapolis Center
10:16AM 44.9081 -93.0406 50° Northeast 272 313 5,000 2,160 Climbing Minneapolis Center
10:17AM 45.1673 -93.4570 298° West  Level FlightAware Approximate
10:17AM 44.9694 -93.0869 332° Northwest 274 315 7,600  Level Minneapolis Center
10:18AM 45.2269 -93.6044 301° West  Level FlightAware Approximate
10:18AM 45.0167 -93.1981 301° West 278 320 10,700  Level Minneapolis Center
10:19AM 45.2863 -93.7522 298° West  Level FlightAware Approximate
10:19AM 45.0736 -93.3197 304° West 324 373 12,100  Level Minneapolis Center
10:20AM 45.3419 -93.9025 297° West  Level FlightAware Approximate
10:20AM 45.1267 -93.4367 303° West 355 409 14,100  Level Minneapolis Center
10:21AM 45.1822 -93.5575 303° West 365 420 16,200 1,800 Climbing Minneapolis Center
10:22AM 45.2403 -93.6825 303° West 380 437 17,800 1,680 Climbing Minneapolis Center
10:23AM 45.2992 -93.8136 303° West 392 451 19,700 1,740 Climbing Minneapolis Center
10:24AM 45.3725 -93.9750 303° West 405 466 21,500 1,560 Climbing Minneapolis Center
10:25AM 45.4336 -94.1153 302° West 415 478 22,900 1,320 Climbing Minneapolis Center
10:27AM 45.4889 -94.2622 298° West 421 484 24,300 1,380 Climbing Minneapolis Center
10:28AM 45.5456 -94.4106 299° West 426 490 25,800 1,260 Climbing Minneapolis Center
10:29AM 45.6056 -94.5586 300° West 430 495 27,000 1,080 Climbing Minneapolis Center
10:30AM 45.6786 -94.6978 307° West 437 503 28,100 1,200 Climbing Minneapolis Center
10:31AM 45.7522 -94.8392 307° West 442 509 29,500 1,560 Climbing Minneapolis Center
10:32AM 45.8372 -95.0042 307° West 433 498 31,400 1,320 Climbing Minneapolis Center
10:33AM 45.8967 -95.1208 306° West 426 490 32,300 840 Climbing Minneapolis Center
10:34AM 45.9794 -95.2844 306° West 425 489 33,400 720 Climbing Minneapolis Center
10:35AM 46.0631 -95.4500 306° West 428 493 34,000 240 Climbing Minneapolis Center
10:36AM 46.1328 -95.5875 306° West 426 490 34,000  Level Minneapolis Center
10:37AM 46.2017 -95.7272 305° West 430 495 34,000  Level Minneapolis Center
10:38AM 46.2758 -95.8750 306° West 434 499 34,000  Level Minneapolis Center
10:39AM 46.3456 -96.0153 306° West 432 497 34,000  Level Minneapolis Center
10:40AM 46.4125 -96.1525 305° West 422 486 34,000  Level Minneapolis Center
10:41AM 46.4794 -96.2883 306° West 417 480 34,000  Level Minneapolis Center
10:42AM 46.5478 -96.4292 305° West 424 488 34,000  Level Minneapolis Center
10:43AM 46.6292 -96.5958 305° West 424 488 34,000  Level Minneapolis Center
10:44AM 46.6978 -96.7375 305° West 429 494 34,000  Level Minneapolis Center
10:45AM 46.7667 -96.8761 306° West 425 489 34,000  Level Minneapolis Center
10:46AM 46.8419 -97.0125 309° West 431 496 34,000  Level Minneapolis Center
10:48AM 46.9183 -97.1472 310° West 432 497 34,000  Level Minneapolis Center
10:49AM 47.0083 -97.3100 309° West 430 495 34,000  Level Minneapolis Center
10:50AM 47.0992 -97.4711 310° West 429 494 34,000  Level Minneapolis Center
10:51AM 47.1742 -97.6075 309° West 429 494 34,000  Level Minneapolis Center
10:52AM 47.2486 -97.7450 309° West 429 494 34,000  Level Minneapolis Center
10:53AM 47.3231 -97.8836 308° West 428 493 34,000  Level Minneapolis Center
10:54AM 47.3994 -98.0239 309° West 430 495 34,000  Level Minneapolis Center
10:55AM 47.4753 -98.1650 309° West 431 496 34,000  Level Minneapolis Center
10:56AM 47.5503 -98.3044 309° West 430 495 34,000  Level Minneapolis Center
10:57AM 47.6236 -98.4439 308° West 428 493 34,000  Level Minneapolis Center
10:58AM 47.6967 -98.5808 308° West 426 490 34,000  Level Minneapolis Center
10:59AM 47.7833 -98.7453 308° West 423 487 34,000  Level Minneapolis Center
11:00AM 47.8556 -98.8828 308° West 422 486 34,000  Level Minneapolis Center
11:01AM 47.9264 -99.0192 308° West 419 482 34,000  Level Minneapolis Center
11:02AM 47.9975 -99.1569 308° West 420 483 34,000  Level Minneapolis Center
11:03AM 48.0697 -99.2967 308° West 424 488 34,000  Level Minneapolis Center
11:04AM 48.1561 -99.4636 308° West 424 488 34,000  Level Minneapolis Center
11:05AM 48.2528 -99.6622 306° West 422 486 34,000  Level Minneapolis Center
11:07AM 48.3228 -99.8022 307° West 421 484 34,000  Level Minneapolis Center
11:08AM 48.3958 -99.9436 308° West 425 489 34,000  Level Minneapolis Center
11:09AM 48.4667 -100.0847 307° West 425 489 34,000  Level Minneapolis Center
11:10AM 48.5358 -100.2247 307° West 420 483 34,000  Level Minneapolis Center
11:11AM 48.6064 -100.3667 307° West 423 487 34,000  Level Minneapolis Center
11:12AM 48.6761 -100.5092 307° West 423 487 34,000  Level Minneapolis Center
11:13AM 48.7597 -100.6783 307° West 421 484 34,000  Level Minneapolis Center
11:14AM 48.8428 -100.8506 306° West 420 483 34,000  Level Minneapolis Center
11:15AM 48.9131 -100.9917 307° West 420 483 34,000  Level Minneapolis Center
11:16AM 48.9950 -101.1636 306° West 419 482 34,000  Level Minneapolis Center
11:17AM 49.0667 -101.3333 303° West 420 483 34,000  Level Winnipeg Center
11:18AM 49.1167 -101.4667 300° West 420 483 34,000  Level Winnipeg Center
11:19AM 49.2000 -101.6333 307° West 420 483 34,000  Level Winnipeg Center
11:20AM 49.2667 -101.7667 307° West 420 483 34,000  Level Winnipeg Center
11:21AM 49.3333 -101.9167 304° West 420 483 34,000  Level Winnipeg Center
11:22AM 49.4000 -102.0500 308° West 420 483 34,000  Level Winnipeg Center
11:23AM 49.4667 -102.2000 304° West 420 483 34,000  Level Winnipeg Center
11:24AM 49.5333 -102.3500 304° West 430 495 34,000  Level Winnipeg Center
11:25AM 49.6167 -102.5000 311° West 430 495 34,000  Level Winnipeg Center
11:26AM 49.6667 -102.6500 297° West 420 483 34,000  Level Winnipeg Center
11:27AM 49.7333 -102.8000 305° West 410 472 34,000  Level Winnipeg Center
11:28AM 49.8000 -102.9500 305° West 420 483 34,000  Level Winnipeg Center
11:29AM 49.8667 -103.1000 305° West 420 483 34,000  Level Winnipeg Center
11:30AM 49.9333 -103.2333 308° West 410 472 34,000  Level Winnipeg Center
11:31AM 50.0000 -103.4000 302° West 410 472 34,000  Level Winnipeg Center
11:32AM 50.0667 -103.5333 308° West 410 472 34,000  Level Winnipeg Center
11:33AM 50.1333 -103.6833 305° West 420 483 34,000  Level Winnipeg Center
11:34AM 50.2000 -103.8167 308° West 420 483 34,000  Level Winnipeg Center
11:35AM 50.2667 -103.9833 302° West 420 483 34,000  Level Winnipeg Center
11:36AM 50.3167 -104.1500 295° West 430 495 34,000  Level Winnipeg Center
11:37AM 50.4000 -104.3000 311° West 430 495 34,000  Level Winnipeg Center
11:38AM 50.4500 -104.4667 295° West 430 495 34,000  Level Winnipeg Center
11:39AM 50.5333 -104.6333 308° West 440 506 34,000 360 Level Winnipeg Center
11:40AM 50.5833 -104.7833 298° West 430 495 34,800 780 Climbing Winnipeg Center
11:41AM 50.6500 -104.9500 302° West 430 495 35,600 600 Climbing Winnipeg Center
11:42AM 50.7167 -105.0833 308° West 430 495 36,000 180 Climbing Winnipeg Center
11:43AM 50.7667 -105.2833 292° West 430 495 36,000  Level Winnipeg Center
11:44AM 50.8167 -105.4333 298° West 430 495 36,000  Level Winnipeg Center
11:45AM 50.8833 -105.6000 302° West 430 495 36,000  Level Winnipeg Center
11:46AM 50.9333 -105.7667 296° West 430 495 36,000  Level Winnipeg Center
11:47AM 50.9833 -105.9333 296° West 430 495 36,000  Level Winnipeg Center
11:48AM 51.0500 -106.1167 300° West 420 483 36,000  Level Winnipeg Center
11:49AM 51.1000 -106.2833 296° West 420 483 36,000  Level Winnipeg Center
11:50AM 51.1500 -106.4333 298° West 430 495 36,000  Level Winnipeg Center
11:51AM 51.2000 -106.6333 292° West 430 495 36,000  Level Winnipeg Center
11:52AM 51.2500 -106.7667 301° West 430 495 36,000  Level Winnipeg Center
11:53AM 51.3167 -106.9500 300° West 430 495 36,000  Level Winnipeg Center
11:54AM 51.3667 -107.1167 296° West 430 495 36,000  Level Winnipeg Center
11:55AM 51.4167 -107.3000 294° West 430 495 36,000  Level Winnipeg Center
11:56AM 51.4667 -107.4667 296° West 430 495 36,100 660 Climbing Winnipeg Center
11:57AM 51.5167 -107.6500 294° West 430 495 37,400 840 Climbing Winnipeg Center
11:58AM 51.5667 -107.8167 296° West 420 483 37,800 300 Climbing Winnipeg Center
11:59AM 51.6167 -108.0000 294° West 420 483 38,000 60 Climbing Winnipeg Center
12:00PM 51.6667 -108.1500 298° West 420 483 38,000  Level Winnipeg Center
12:01PM 51.7167 -108.3167 296° West 420 483 38,000  Level Winnipeg Center
12:02PM 51.7667 -108.5000 294° West 430 495 38,000  Level Winnipeg Center
12:03PM 51.8167 -108.6667 296° West 420 483 38,000  Level Winnipeg Center
12:04PM 51.8667 -108.8500 294° West 420 483 38,000  Level Winnipeg Center
12:05PM 51.9000 -109.0000 290° West 420 483 38,000  Level Winnipeg Center
12:06PM 51.9500 -109.1833 294° West 420 483 38,000  Level Winnipeg Center
12:07PM 52.0000 -109.3500 296° West 420 483 38,000  Level Winnipeg Center
12:08PM 52.0500 -109.5333 294° West 410 472 38,000  Level Winnipeg Center
12:09PM 52.1000 -109.6833 299° West 410 472 38,000  Level Winnipeg Center
12:10PM 52.1500 -109.8667 294° West 410 472 38,000  Level Winnipeg Center
12:11PM 52.2000 -110.0500 294° West 420 483 38,000  Level Winnipeg Center
12:12PM 52.2333 -110.2000 290° West 420 483 38,000  Level Winnipeg Center
12:13PM 52.2833 -110.3667 296° West 420 483 38,000  Level Winnipeg Center
12:14PM 52.3500 -110.5667 299° West 400 460 38,000  Level Winnipeg Center
12:15PM 52.3833 -110.7167 290° West 410 472 38,000  Level Winnipeg Center
12:16PM 52.4167 -110.8833 288° West 410 472 38,000  Level Winnipeg Center
12:17PM 52.4667 -111.0667 294° West 410 472 38,000  Level Winnipeg Center
12:18PM 52.5167 -111.2333 296° West 410 472 38,000  Level Winnipeg Center
12:19PM 52.5667 -111.4167 294° West 410 472 38,000  Level Winnipeg Center
12:20PM 52.6000 -111.5667 290° West 410 472 38,000  Level Winnipeg Center
12:21PM 52.6667 -111.7500 301° West 410 472 38,000  Level Winnipeg Center
12:22PM 52.7000 -111.9000 290° West 410 472 38,000  Level Winnipeg Center
12:23PM 52.7667 -112.0500 306° West 400 460 38,000  Level Winnipeg Center
12:24PM 52.8333 -112.2000 306° West 410 472 38,000  Level Winnipeg Center
12:25PM 52.9000 -112.3667 304° West 410 472 38,000  Level Winnipeg Center
12:26PM 52.9667 -112.5333 304° West 410 472 38,000  Level Winnipeg Center
12:27PM 53.0167 -112.7000 297° West 410 472 38,000  Level Winnipeg Center
12:28PM 53.0833 -112.8333 310° West 410 472 38,000  Level Winnipeg Center
12:29PM 53.1333 -113.0000 297° West 410 472 38,000  Level Winnipeg Center
12:31PM 53.2167 -113.1667 310° West 400 460 38,000  Level Edmonton Center
12:32PM 53.2667 -113.3500 295° West 410 472 38,000  Level Edmonton Center
12:33PM 53.3333 -113.5000 307° West 400 460 38,000  Level Edmonton Center
12:34PM 53.4000 -113.6667 304° West 400 460 38,000  Level Edmonton Center
12:35PM 53.4500 -113.8500 295° West 400 460 38,000  Level Edmonton Center
12:36PM 53.5000 -114.0000 299° West 400 460 38,000  Level Edmonton Center
12:37PM 53.5667 -114.1500 307° West 400 460 38,000  Level Edmonton Center
12:38PM 53.6167 -114.3167 297° West 400 460 38,000  Level Edmonton Center
12:39PM 53.6833 -114.5000 302° West 400 460 38,000  Level Edmonton Center
12:40PM 53.7333 -114.6500 299° West 400 460 38,000  Level Edmonton Center
12:41PM 53.8000 -114.8167 304° West 400 460 38,000  Level Edmonton Center
12:42PM 53.8500 -114.9667 300° West 400 460 38,000  Level Edmonton Center
12:43PM 53.9000 -115.1333 297° West 400 460 38,000  Level Edmonton Center
12:44PM 53.9500 -115.3167 295° West 400 460 38,000  Level Edmonton Center
12:45PM 54.0167 -115.4833 304° West 400 460 38,000  Level Edmonton Center
12:46PM 54.0833 -115.6500 304° West 400 460 38,000  Level Edmonton Center
12:47PM 54.1333 -115.8000 300° West 400 460 38,000  Level Edmonton Center
12:48PM 54.1833 -115.9667 297° West 400 460 38,000  Level Edmonton Center
12:49PM 54.2333 -116.1167 300° West 400 460 38,000  Level Edmonton Center
12:50PM 54.2833 -116.3167 293° West 400 460 38,000  Level Edmonton Center
12:51PM 54.3333 -116.4833 297° West 400 460 38,000  Level Edmonton Center
12:52PM 54.4167 -116.6500 311° West 400 460 38,000  Level Edmonton Center
12:53PM 54.4667 -116.8000 300° West 410 472 38,000  Level Edmonton Center
12:54PM 54.5167 -117.0000 293° West 410 472 38,000  Level Edmonton Center
12:55PM 54.5833 -117.1667 305° West 410 472 38,000  Level Edmonton Center
12:56PM 54.6333 -117.3333 297° West 410 472 38,000  Level Edmonton Center
12:57PM 54.6833 -117.5333 293° West 410 472 38,000  Level Edmonton Center
12:58PM 54.7333 -117.6833 300° West 410 472 38,000  Level Edmonton Center
12:59PM 54.8000 -117.8833 300° West 420 483 38,000  Level Edmonton Center
01:00PM 54.8500 -118.0500 298° West 410 472 38,000  Level Edmonton Center
01:01PM 54.9000 -118.2167 298° West 410 472 38,000  Level Edmonton Center
01:02PM 54.9500 -118.4167 294° West 410 472 38,000  Level Edmonton Center
01:03PM 55.0000 -118.5833 298° West 420 483 38,000  Level Edmonton Center
01:04PM 55.0500 -118.7833 294° West 420 483 38,000  Level Edmonton Center
01:05PM 55.1167 -118.9667 303° West 420 483 38,000  Level Edmonton Center
01:06PM 55.1667 -119.1333 298° West 420 483 38,000  Level Edmonton Center
01:07PM 55.2333 -119.3333 300° West 430 495 38,000  Level Edmonton Center
01:08PM 55.2833 -119.5167 296° West 430 495 38,000  Level Edmonton Center
01:10PM 55.4000 -119.8500 302° West 430 495 38,000  Level Edmonton Center
01:11PM 55.4667 -120.0667 299° West 430 495 38,000  Level Edmonton Center
01:12PM 55.5333 -120.2500 303° West 430 495 38,000  Level Edmonton Center
01:13PM 55.5667 -120.4167 290° West 430 495 38,000  Level Edmonton Center
01:14PM 55.6333 -120.6167 301° West 430 495 38,000  Level Edmonton Center
01:15PM 55.7000 -120.8000 303° West 430 495 38,000  Level Edmonton Center
01:16PM 55.7333 -120.9833 288° West 430 495 38,000  Level Edmonton Center
01:17PM 55.8000 -121.1833 301° West 430 495 38,000  Level Edmonton Center
01:18PM 55.8667 -121.3667 303° West 440 506 38,000  Level Edmonton Center
01:19PM 55.9167 -121.5833 292° West 430 495 38,000  Level Edmonton Center
01:20PM 55.9833 -121.7667 303° West 430 495 38,000  Level Edmonton Center
01:21PM 56.0333 -121.9667 294° West 430 495 38,000  Level Edmonton Center
01:22PM 56.0833 -122.1500 296° West 430 495 38,000  Level Edmonton Center
01:23PM 56.1333 -122.3333 296° West 430 495 38,000  Level Edmonton Center
01:24PM 56.2000 -122.5500 299° West 430 495 38,000  Level Edmonton Center
01:25PM 56.2500 -122.7333 296° West 430 495 38,000  Level Edmonton Center
01:26PM 56.3167 -122.9167 303° West 430 495 38,000  Level Edmonton Center
01:27PM 56.3500 -123.1333 286° West 440 506 38,000  Level Edmonton Center
01:28PM 56.4333 -123.3167 309° West 440 506 38,000  Level Edmonton Center
01:29PM 56.4667 -123.5333 286° West 440 506 38,000  Level Edmonton Center
01:30PM 56.5167 -123.7167 296° West 440 506 38,000  Level Edmonton Center
01:31PM 56.5667 -123.9333 293° West 440 506 38,000  Level Edmonton Center
01:32PM 56.6333 -124.1333 301° West 440 506 38,000  Level Edmonton Center
01:33PM 56.6833 -124.3167 296° West 430 495 38,000  Level Edmonton Center
01:34PM 56.7333 -124.5333 293° West 440 506 38,000  Level Edmonton Center
01:35PM 56.8000 -124.7333 301° West 440 506 38,000  Level Edmonton Center
01:36PM 56.8500 -124.9500 293° West 440 506 38,000  Level Edmonton Center
01:37PM 56.8833 -125.1333 288° West 440 506 38,000  Level Edmonton Center
01:38PM 56.9333 -125.3500 293° West 440 506 38,000  Level Edmonton Center
01:39PM 57.0000 -125.5500 302° West 440 506 38,000  Level Edmonton Center
01:40PM 57.0333 -125.7667 286° West 440 506 38,000  Level Edmonton Center
01:43PM 57.1394 -126.1404 298° West  Level FlightAware Approximate
01:50PM 57.4736 -127.5041 294° West  Level FlightAware Approximate
01:51PM 57.5189 -127.7018 293° West  Level FlightAware Approximate
01:52PM 57.5639 -127.8999 293° West  Level FlightAware Approximate
01:53PM 57.6086 -128.0986 293° West  Level FlightAware Approximate
01:54PM 57.6530 -128.2978 293° West  Level FlightAware Approximate
01:55PM 57.6971 -128.4974 293° West  Level FlightAware Approximate
01:56PM 57.7408 -128.6976 292° West  Level FlightAware Approximate
01:57PM 57.7843 -128.8982 292° West  Level FlightAware Approximate
01:58PM 57.8274 -129.0993 292° West  Level FlightAware Approximate
01:59PM 57.8702 -129.3009 292° West  Level FlightAware Approximate
02:00PM 57.9127 -129.5029 292° West  Level FlightAware Approximate
02:01PM 57.9549 -129.7055 291° West  Level FlightAware Approximate
02:02PM 57.9967 -129.9085 291° West  Level FlightAware Approximate
02:03PM 58.0382 -130.1120 291° West  Level FlightAware Approximate
02:04PM 58.0794 -130.3159 291° West  Level FlightAware Approximate
02:05PM 58.1203 -130.5203 291° West  Level FlightAware Approximate
02:06PM 58.1609 -130.7252 291° West  Level FlightAware Approximate
02:07PM 58.2011 -130.9306 290° West  Level FlightAware Approximate
02:08PM 58.2409 -131.1364 290° West  Level FlightAware Approximate
02:09PM 58.2805 -131.3427 290° West  Level FlightAware Approximate
02:10PM 58.3197 -131.5495 290° West  Level FlightAware Approximate
02:11PM 58.3581 -131.7570 290° West  Level FlightAware Approximate
02:12PM 58.3961 -131.9650 289° West  Level FlightAware Approximate
02:13PM 58.4338 -132.1734 289° West  Level FlightAware Approximate
02:13PM 58.5667 -132.9500 288° West 460 529 38,000  Level Anchorage Center
02:14PM 58.4712 -132.3823 289° West  Level FlightAware Approximate
02:14PM 58.6000 -133.1833 285° West 450 518 38,000  Level Anchorage Center
02:15PM 58.5082 -132.5916 289° West  Level FlightAware Approximate
02:15PM 58.6500 -133.4167 292° West 450 518 38,000  Level Anchorage Center
02:16PM 58.5449 -132.8013 289° West  Level FlightAware Approximate
02:16PM 58.6833 -133.6333 287° West 440 506 38,000  Level Anchorage Center
02:17PM 58.5813 -133.0115 288° West  Level FlightAware Approximate
02:17PM 58.7167 -133.8667 285° West 440 506 38,000  Level Anchorage Center
02:18PM 58.6173 -133.2222 288° West  Level FlightAware Approximate
02:18PM 58.7500 -134.1000 285° West 450 518 38,000  Level Anchorage Center
02:19PM 58.7833 -134.3167 287° West 450 518 38,000  Level Anchorage Center
02:20PM 58.8333 -134.5500 293° West 450 518 38,000  Level Anchorage Center
02:21PM 58.8667 -134.7833 286° West 440 506 38,000  Level Anchorage Center
02:22PM 58.9000 -135.0167 286° West 450 518 38,000  Level Anchorage Center
02:23PM 58.9333 -135.2500 286° West 450 518 38,000  Level Anchorage Center
02:24PM 58.9667 -135.4833 286° West 450 518 38,000  Level Anchorage Center
02:25PM 59.0000 -135.7167 286° West 440 506 38,000  Level Anchorage Center
02:26PM 59.0333 -135.9500 286° West 450 518 38,000  Level Anchorage Center
02:27PM 59.0667 -136.1667 287° West 440 506 38,000  Level Anchorage Center
02:28PM 59.1000 -136.4000 286° West 450 518 38,000  Level Anchorage Center
02:29PM 59.1333 -136.6333 286° West 440 506 38,000  Level Anchorage Center
02:30PM 59.1667 -136.8667 286° West 450 518 38,000  Level Anchorage Center
02:31PM 59.2000 -137.1000 286° West 440 506 38,000  Level Anchorage Center
02:32PM 59.2167 -137.3167 279° West 430 495 38,000  Level Anchorage Center
02:33PM 59.2500 -137.5500 286° West 430 495 38,000  Level Anchorage Center
02:34PM 59.2833 -137.7667 287° West 430 495 38,000  Level Anchorage Center
02:35PM 59.3167 -138.0000 286° West 430 495 38,000  Level Anchorage Center
02:36PM 59.3333 -138.2333 278° West 430 495 38,000  Level Anchorage Center
02:37PM 59.3667 -138.4500 287° West 430 495 38,000  Level Anchorage Center
02:38PM 59.4000 -138.6833 286° West 420 483 38,000  Level Anchorage Center
02:39PM 59.4167 -138.9167 278° West 430 495 38,000  Level Anchorage Center
02:40PM 59.4500 -139.1333 287° West 420 483 38,000  Level Anchorage Center
02:41PM 59.4667 -139.3667 278° West 430 495 38,000  Level Anchorage Center
02:42PM 59.5000 -139.5833 287° West 440 506 38,000  Level Anchorage Center
02:43PM 59.5333 -139.8000 287° West 430 495 38,000  Level Anchorage Center
02:44PM 59.5667 -140.0167 287° West 410 472 38,000  Level Anchorage Center
02:45PM 59.6000 -140.2500 286° West 430 495 38,000  Level Anchorage Center
02:46PM 59.6333 -140.4667 287° West 410 472 38,000  Level Anchorage Center
02:47PM 59.6667 -140.6667 288° West 400 460 38,000  Level Anchorage Center
02:48PM 59.7167 -140.8833 295° West 410 472 38,000  Level Anchorage Center
02:49PM 59.7667 -141.0833 296° West 400 460 38,000  Level Anchorage Center
02:50PM 59.8167 -141.3000 295° West 410 472 38,000  Level Anchorage Center
02:51PM 59.8667 -141.5000 297° West 410 472 38,000  Level Anchorage Center
02:52PM 59.9167 -141.7167 295° West 420 483 38,000  Level Anchorage Center
02:53PM 59.9500 -141.9167 288° West 410 472 38,000  Level Anchorage Center
02:54PM 60.0000 -142.1333 295° West 420 483 38,000  Level Anchorage Center
02:55PM 60.0500 -142.3500 295° West 420 483 38,000  Level Anchorage Center
02:56PM 60.1000 -142.5500 297° West 410 472 38,000  Level Anchorage Center
02:57PM 60.1500 -142.7667 295° West 410 472 38,000  Level Anchorage Center
02:58PM 60.2000 -142.9833 295° West 410 472 38,000  Level Anchorage Center
02:59PM 60.2333 -143.2000 287° West 420 483 38,000  Level Anchorage Center
03:00PM 60.2833 -143.4167 295° West 420 483 38,000  Level Anchorage Center
03:01PM 60.3333 -143.6333 295° West 410 472 38,000  Level Anchorage Center
03:02PM 60.3833 -143.8500 295° West 430 495 38,000  Level Anchorage Center
03:03PM 60.4167 -144.0667 287° West 420 483 38,000  Level Anchorage Center
03:04PM 60.4667 -144.2833 295° West 420 483 38,000  Level Anchorage Center
03:05PM 60.5167 -144.5000 295° West 420 483 38,000  Level Anchorage Center
03:06PM 60.5500 -144.7167 287° West 420 483 38,000  Level Anchorage Center
03:07PM 60.6000 -144.9333 295° West 410 472 38,000  Level Anchorage Center
03:08PM 60.6500 -145.1667 294° West 420 483 38,000  Level Anchorage Center
03:09PM 60.7000 -145.4167 292° West 410 472 38,000  Level Anchorage Center
03:10PM 60.7333 -145.6500 286° West 410 472 38,000  Level Anchorage Center
03:11PM 60.7833 -145.8667 295° West 410 472 38,000  Level Anchorage Center
03:12PM 60.8167 -146.0833 288° West 410 472 38,000  Level Anchorage Center
03:13PM 60.8500 -146.3000 288° West 410 472 38,000  Level Anchorage Center
03:14PM 60.9000 -146.5333 294° West 410 472 38,000  Level Anchorage Center
03:15PM 60.9333 -146.7500 288° West 410 472 38,000  Level Anchorage Center
03:16PM 60.9833 -146.9667 296° West 420 483 38,000  Level Anchorage Center
03:17PM 61.0167 -147.2000 287° West 410 472 38,000 -960 Level Anchorage Center
03:18PM 61.0500 -147.4167 288° West 410 472 36,100 -2,700 Descending Anchorage Center
03:19PM 61.1000 -147.6667 293° West 420 483 32,600 -3,300 Descending Anchorage Center
03:20PM 61.1333 -147.8833 288° West 420 483 29,600 -3,060 Descending Anchorage Center
03:21PM 61.1667 -148.1167 287° West 430 495 26,500 -2,820 Descending Anchorage Center
03:22PM 61.2167 -148.3333 296° West 400 460 24,000 -2,700 Descending Anchorage Center
03:23PM 61.2500 -148.5500 288° West 390 449 21,100 -2,940 Descending Anchorage Center
03:25PM 61.2934 -148.7955 290° West  Level FlightAware Approximate
03:32PM 61.1667 -149.9833 243° Southwest  Level FlightAware Approximate
03:33PM 61.1741 -149.9982 243° Southwest  Level Estimated
03:34PM 61.1741 -149.9982 243° Southwest  Level Estimated
03:35PM 61.1741 -149.9982 243° Southwest  Level Estimated
03:36PM 61.1741 -149.9982 243° Southwest  Level Estimated
03:37PM 61.1741 -149.9982 243° Southwest  Level Estimated
03:38PM 61.1741 -149.9982 243° Southwest  Level Estimated
03:39PM 61.1741 -149.9982 243° Southwest  Level Estimated